.
WxDataArchive / Data Records for 2010-05-28
2010-05-27 May 2010 2010-05-29

Data Records for Friday, 28 May 2010

Time	Temp	Chill	HIndex	Humid	Dewpt	 Wind 	HiWind	WindDir	Rain 	Barom 
-----	----	-----	------	-----	-----	------	------	-------	-----	----- 
00:00	70.4	70.4	70.4	66	58.5	0	0	---	0.00	29.918 
00:05	70.4	70.4	70.4	65	58.1	0	0	---	0.00	29.918 
00:10	70.4	70.4	70.4	64	57.6	0	0	---	0.00	29.918 
00:15	70.3	70.3	70.3	64	57.5	0	0	---	0.00	29.918 
00:20	70.1	70.1	70.1	63	56.9	0	0	---	0.00	29.918 
00:25	70.1	70.1	70.1	62	56.5	0	0	---	0.00	29.918 
00:30	70.1	70.1	70.1	62	56.5	0	0	---	0.00	29.916 
00:35	69.9	69.9	69.9	62	56.3	0	0	---	0.00	29.916 
00:40	69.8	69.8	69.8	62	56.2	0	0	---	0.00	29.916 
00:45	69.8	69.8	69.8	62	56.2	0	0	---	0.00	29.915 
00:50	69.6	69.6	69.6	63	56.4	0	0	---	0.00	29.915 
00:55	69.4	69.4	69.4	63	56.2	0	0	---	0.00	29.915 
01:00	69.1	69.1	69.1	63	56.0	0	0	---	0.00	29.914 
01:05	68.9	68.9	68.9	64	56.2	0	0	---	0.00	29.914 
01:10	68.8	68.8	68.8	64	56.1	0	0	---	0.00	29.914 
01:15	68.6	68.6	68.6	64	55.9	0	0	---	0.00	29.911 
01:20	68.4	68.4	68.4	64	55.7	0	0	---	0.00	29.911 
01:25	68.3	68.3	68.3	64	55.6	0	0	---	0.00	29.911 
01:30	68.1	68.1	68.1	64	55.5	0	0	---	0.00	29.909 
01:35	67.9	67.9	67.9	64	55.3	0	0	---	0.00	29.909 
01:40	67.9	67.9	67.9	64	55.3	0	1	112	0.00	29.909 
01:45	67.8	67.8	67.8	65	55.6	0	0	---	0.00	29.905 
01:50	67.6	67.6	67.6	65	55.4	0	0	---	0.00	29.905 
01:55	67.3	67.3	67.3	66	55.5	0	0	---	0.00	29.905 
02:00	67.1	67.1	67.1	65	54.9	0	0	---	0.00	29.904 
02:05	67.1	67.1	67.1	66	55.4	0	0	---	0.00	29.904 
02:10	66.9	66.9	66.9	66	55.2	0	0	---	0.00	29.904 
02:15	66.8	66.8	66.8	67	55.5	0	0	---	0.00	29.906 
02:20	66.6	66.6	66.6	67	55.3	0	0	---	0.00	29.906 
02:25	66.4	66.4	66.4	68	55.5	0	0	---	0.00	29.906 
02:30	66.3	66.3	66.3	68	55.4	0	0	---	0.00	29.908 
02:35	66.1	66.1	66.1	69	55.6	0	0	---	0.00	29.908 
02:40	66.1	66.1	66.1	69	55.6	0	0	---	0.00	29.908 
02:45	66.0	66.0	66.0	69	55.5	0	0	---	0.00	29.912 
02:50	66.0	66.0	66.0	69	55.5	0	0	---	0.00	29.912 
02:55	66.0	66.0	66.0	69	55.5	0	0	---	0.00	29.912 
03:00	66.0	66.0	66.0	69	55.5	0	0	---	0.00	29.913 
03:05	65.8	65.8	65.8	69	55.3	0	0	---	0.00	29.913 
03:10	65.8	65.8	65.8	69	55.3	0	0	---	0.00	29.913 
03:15	65.8	65.8	65.8	69	55.3	0	0	---	0.00	29.914 
03:20	65.8	65.8	65.8	69	55.3	0	0	---	0.00	29.914 
03:25	65.8	65.8	65.8	69	55.3	0	0	---	0.00	29.914 
03:30	66.0	66.0	66.0	69	55.5	0	0	---	0.00	29.914 
03:35	65.8	65.8	65.8	69	55.3	0	0	---	0.00	29.914 
03:40	65.8	65.8	65.8	69	55.3	0	0	---	0.00	29.914 
03:45	65.8	65.8	65.8	70	55.7	0	0	---	0.00	29.911 
03:50	65.8	65.8	65.8	70	55.7	0	0	---	0.00	29.911 
03:55	65.8	65.8	65.8	70	55.7	0	0	---	0.00	29.911 
04:00	65.6	65.6	65.6	70	55.5	0	0	---	0.00	29.909 
04:05	65.8	65.8	65.8	70	55.7	0	0	---	0.00	29.909 
04:10	66.0	66.0	66.0	69	55.5	0	1	112	0.00	29.909 
04:15	66.0	66.0	66.0	69	55.5	0	0	---	0.00	29.915 
04:20	66.0	66.0	66.0	69	55.5	0	0	---	0.00	29.915 
04:25	65.8	65.8	65.8	69	55.3	0	0	---	0.00	29.915 
04:30	65.8	65.8	65.8	70	55.7	0	0	---	0.00	29.914 
04:35	65.6	65.6	65.6	70	55.5	0	0	---	0.00	29.914 
04:40	65.5	65.5	65.5	71	55.8	0	0	---	0.00	29.914 
04:45	65.3	65.3	65.3	71	55.6	0	0	---	0.00	29.915 
04:50	65.2	65.2	65.2	71	55.6	0	0	---	0.00	29.915 
04:55	65.2	65.2	65.2	72	55.9	0	0	---	0.00	29.915 
05:00	65.0	65.0	65.0	72	55.7	0	0	---	0.00	29.916 
05:05	65.0	65.0	65.0	72	55.7	0	0	---	0.00	29.916 
05:10	65.0	65.0	65.0	72	55.7	0	0	---	0.00	29.916 
05:15	65.0	65.0	65.0	72	55.7	0	0	---	0.00	29.917 
05:20	65.0	65.0	65.0	72	55.7	0	0	---	0.00	29.917 
05:25	64.8	64.8	64.8	72	55.6	0	0	---	0.00	29.917 
05:30	64.7	64.7	64.7	72	55.5	0	0	---	0.00	29.916 
05:35	64.7	64.7	64.7	73	55.8	0	0	---	0.00	29.916 
05:40	64.5	64.5	64.5	73	55.6	0	0	---	0.00	29.916 
05:45	64.3	64.3	64.3	73	55.5	0	0	---	0.00	29.923 
05:50	64.2	64.2	64.2	73	55.4	0	0	---	0.00	29.923 
05:55	64.2	64.2	64.2	73	55.4	0	0	---	0.00	29.923 
06:00	64.0	64.0	64.0	73	55.2	0	0	---	0.00	29.929 
06:05	63.9	63.9	63.9	74	55.4	0	0	---	0.00	29.929 
06:10	63.7	63.7	63.7	74	55.3	0	0	---	0.00	29.929 
06:15	63.5	63.5	63.5	74	55.1	0	0	---	0.00	29.925 
06:20	63.4	63.4	63.4	75	55.3	0	0	---	0.00	29.925 
06:25	63.2	63.2	63.2	75	55.1	0	0	---	0.00	29.925 
06:30	63.1	63.1	63.1	76	55.4	0	0	---	0.00	29.926 
06:35	62.9	62.9	62.9	76	55.2	0	0	---	0.00	29.926 
06:40	62.9	62.9	62.9	77	55.6	0	0	---	0.00	29.926 
06:45	62.9	62.9	62.9	77	55.6	0	0	---	0.00	29.935 
06:50	63.1	63.1	63.1	77	55.8	0	0	---	0.00	29.935 
06:55	63.2	63.2	63.2	77	55.9	0	0	---	0.00	29.935 
07:00	63.2	63.2	63.2	77	55.9	0	0	---	0.00	29.937 
07:05	63.4	63.4	63.4	77	56.1	0	0	---	0.00	29.937 
07:10	63.4	63.4	63.4	77	56.1	0	0	---	0.00	29.937 
07:15	63.5	63.5	63.5	76	55.8	0	0	---	0.00	29.940 
07:20	63.7	63.7	63.7	76	56.0	0	0	---	0.00	29.940 
07:25	64.0	64.0	64.0	76	56.3	0	0	---	0.00	29.940 
07:30	64.3	64.3	64.3	75	56.2	0	0	---	0.00	29.950 
07:35	64.7	64.7	64.7	74	56.2	0	0	---	0.00	29.950 
07:40	65.0	65.0	65.0	73	56.1	0	0	---	0.00	29.950 
07:45	65.5	65.5	65.5	72	56.2	0	0	---	0.00	29.946 
07:50	66.1	66.1	66.1	70	56.0	0	0	---	0.00	29.946 
07:55	66.6	66.6	66.6	70	56.5	0	0	---	0.00	29.946 
08:00	67.3	67.3	67.3	68	56.4	0	0	---	0.00	29.945 
08:05	68.1	68.1	68.1	66	56.3	0	0	---	0.00	29.945 
08:10	68.8	68.8	68.8	65	56.5	0	0	---	0.00	29.945 
08:15	69.6	69.6	69.6	64	56.9	0	0	---	0.00	29.951 
08:20	70.1	70.1	70.1	60	55.6	0	2	112	0.00	29.951 
08:25	70.3	70.3	70.3	62	56.7	0	3	112	0.00	29.951 
08:30	70.6	70.6	70.6	62	56.9	1	4	112	0.00	29.949 
08:35	70.9	70.9	70.9	61	56.8	0	4	135	0.00	29.949 
08:40	71.1	71.1	71.1	60	56.5	0	1	135	0.00	29.949 
08:45	71.1	71.1	71.1	61	57.0	0	1	135	0.00	29.949 
08:50	71.5	71.5	71.5	58	55.9	0	3	135	0.00	29.949 
08:55	72.0	72.0	72.0	61	57.8	1	3	135	0.00	29.949 
09:00	72.0	72.0	72.0	59	56.9	0	3	135	0.00	29.950 
09:05	72.3	72.3	72.3	59	57.2	0	1	135	0.00	29.950 
09:10	72.8	72.8	72.8	61	58.6	1	3	135	0.00	29.950 
09:15	73.0	73.0	73.0	58	57.3	0	1	135	0.00	29.953 
09:20	73.2	73.2	73.2	58	57.5	1	2	135	0.00	29.953 
09:25	73.3	73.3	73.3	59	58.1	0	2	135	0.00	29.953 
09:30	73.9	73.9	73.9	58	58.2	0	3	135	0.00	29.953 
09:35	74.0	74.0	74.0	58	58.3	1	2	135	0.00	29.953 
09:40	74.0	74.0	74.0	58	58.3	1	4	112	0.00	29.953 
09:45	74.0	74.0	74.0	61	59.7	0	1	112	0.00	29.953 
09:50	74.0	74.0	74.0	58	58.3	0	1	112	0.00	29.953 
09:55	74.6	74.6	74.6	59	59.3	1	3	112	0.00	29.953 
10:00	74.9	74.9	74.9	61	60.5	0	2	112	0.00	29.962 
10:05	75.3	75.3	77.7	56	58.5	1	3	112	0.00	29.962 
10:10	75.3	75.3	77.7	55	58.0	1	2	112	0.00	29.962 
10:15	75.6	75.6	77.8	56	58.8	0	2	112	0.00	29.960 
10:20	75.8	75.8	77.9	57	59.5	1	2	112	0.00	29.960 
10:25	76.1	76.1	78.1	54	58.2	0	2	112	0.00	29.960 
10:30	76.7	76.7	78.5	52	57.7	0	2	112	0.00	29.962 
10:35	77.6	77.6	79.1	54	59.6	0	1	112	0.00	29.962 
10:40	77.7	77.7	79.1	52	58.6	0	2	112	0.00	29.962 
10:45	77.9	77.9	79.2	50	57.7	1	4	112	0.00	29.962 
10:50	77.6	77.6	79.0	51	58.0	1	2	112	0.00	29.962 
10:55	77.7	77.7	79.2	53	59.2	0	1	112	0.00	29.962 
11:00	78.1	78.1	79.2	48	56.8	0	1	112	0.00	29.960 
11:05	78.3	78.3	79.5	51	58.7	0	1	112	0.00	29.960 
11:10	78.8	78.8	79.9	52	59.7	1	2	112	0.00	29.960 
11:15	79.2	79.2	80.3	52	60.0	0	2	112	0.00	29.964 
11:20	79.4	79.4	80.1	48	58.0	1	4	112	0.00	29.964 
11:25	79.8	79.8	80.6	50	59.5	1	4	112	0.00	29.964 
11:30	79.8	79.8	80.7	51	60.0	1	4	112	0.00	29.960 
11:35	79.8	79.8	80.6	50	59.5	0	2	112	0.00	29.960 
11:40	80.3	80.3	81.0	49	59.4	1	3	112	0.00	29.960 
11:45	80.3	80.3	81.1	50	59.9	1	2	112	0.00	29.956 
11:50	80.5	80.5	81.4	51	60.7	1	3	112	0.00	29.956 
11:55	80.7	80.7	81.9	54	62.5	0	1	112	0.00	29.956 
12:00	81.1	81.1	81.8	50	60.7	0	1	112	0.00	29.957 
12:05	81.1	81.1	81.8	50	60.7	0	1	112	0.00	29.957 
12:10	81.2	81.2	81.8	49	60.2	0	1	112	0.00	29.957 
12:15	81.8	81.8	82.6	50	61.3	0	1	112	0.00	29.957 
12:20	81.6	81.6	82.1	48	60.0	0	2	112	0.00	29.957 
12:25	81.4	81.4	82.0	49	60.4	0	2	112	0.00	29.957 
12:30	81.4	81.4	82.0	49	60.4	0	3	112	0.00	29.957 
12:35	81.4	81.4	81.6	46	58.6	0	2	112	0.00	29.957 
12:40	81.4	81.4	82.3	51	61.5	0	2	112	0.00	29.957 
12:45	81.6	81.6	82.6	52	62.2	0	3	112	0.00	29.952 
12:50	82.0	82.0	82.5	48	60.3	0	4	112	0.00	29.952 
12:55	81.8	81.8	82.1	47	59.6	0	2	112	0.00	29.952 
13:00	82.4	82.4	83.0	49	61.3	1	3	112	0.00	29.949 
13:05	82.4	82.4	83.0	49	61.3	0	2	112	0.00	29.949 
13:10	82.8	82.8	82.9	45	59.3	1	4	112	0.00	29.949 
13:15	83.0	83.0	83.5	48	61.3	0	1	112	0.00	29.945 
13:20	82.8	82.8	82.9	45	59.3	1	3	112	0.00	29.945 
13:25	83.0	83.0	83.4	47	60.7	0	2	202	0.00	29.945 
13:30	83.2	83.2	83.6	47	60.8	0	2	202	0.00	29.938 
13:35	83.2	83.2	83.0	43	58.3	0	2	180	0.00	29.938 
13:40	83.4	83.4	83.5	45	59.8	0	2	180	0.00	29.938 
13:45	83.8	83.8	84.3	47	61.4	0	3	180	0.00	29.941 
13:50	83.8	83.8	84.3	47	61.4	1	3	135	0.00	29.941 
13:55	84.0	84.0	84.5	47	61.6	1	3	202	0.00	29.941 
14:00	84.1	84.1	84.1	44	59.8	0	2	158	0.00	29.937 
14:05	84.0	84.0	84.1	45	60.3	1	3	315	0.00	29.937 
14:10	83.8	83.8	84.3	47	61.4	0	3	315	0.00	29.937 
14:15	84.0	84.0	84.5	47	61.6	0	2	315	0.00	29.935 
14:20	84.1	84.1	84.1	44	59.8	0	2	315	0.00	29.935 
14:25	84.1	84.1	84.1	44	59.8	1	4	90	0.00	29.935 
14:30	84.3	84.3	84.1	43	59.3	1	3	270	0.00	29.933 
14:35	84.3	84.3	84.5	45	60.6	1	3	270	0.00	29.933 
14:40	84.5	84.5	84.9	46	61.4	0	4	315	0.00	29.933 
14:45	84.9	84.9	85.2	45	61.2	0	3	112	0.00	29.930 
14:50	85.1	85.1	85.9	47	62.6	0	2	112	0.00	29.930 
14:55	84.9	84.9	85.0	44	60.5	1	4	315	0.00	29.930 
15:00	85.1	85.1	85.4	45	61.3	0	2	45	0.00	29.924 
15:05	85.1	85.1	85.0	43	60.1	1	4	270	0.00	29.924 
15:10	85.3	85.3	85.5	44	60.9	0	2	292	0.00	29.924 
15:15	85.7	85.7	85.7	43	60.6	1	2	292	0.00	29.916 
15:20	85.7	85.7	85.5	42	59.9	1	3	292	0.00	29.916 
15:25	85.1	85.1	84.6	41	58.7	2	4	292	0.00	29.916 
15:30	85.1	85.1	85.2	44	60.7	0	2	158	0.00	29.915 
15:35	84.7	84.7	85.0	45	61.0	0	2	180	0.00	29.915 
15:40	84.9	84.9	85.6	47	62.4	1	4	292	0.00	29.915 
15:45	85.3	85.3	85.7	45	61.5	0	3	270	0.00	29.915 
15:50	85.7	85.7	86.0	44	61.2	1	5	112	0.00	29.915 
15:55	85.5	85.5	85.5	43	60.4	1	4	315	0.00	29.915 
16:00	85.3	85.3	85.0	42	59.6	0	3	270	0.00	29.910 
16:05	84.9	84.9	84.8	43	59.9	0	1	270	0.00	29.910 
16:10	85.1	85.1	84.8	42	59.4	0	1	270	0.00	29.910 
16:15	84.9	84.9	84.6	42	59.2	1	3	270	0.00	29.904 
16:20	84.3	84.3	84.3	44	60.0	0	2	270	0.00	29.904 
16:25	84.7	84.7	84.4	42	59.0	0	3	270	0.00	29.904 
16:30	85.3	85.3	84.7	40	58.2	1	2	270	0.00	29.900 
16:35	85.7	85.7	86.4	46	62.5	0	2	270	0.00	29.900 
16:40	86.5	86.5	86.7	43	61.3	0	1	292	0.00	29.900 
16:45	86.3	86.3	85.8	40	59.1	1	3	270	0.00	29.900 
16:50	85.9	85.9	85.5	41	59.4	1	3	315	0.00	29.900 
16:55	85.7	85.7	85.7	43	60.6	0	3	315	0.00	29.900 
17:00	85.9	85.9	85.1	39	58.0	0	2	315	0.00	29.896 
17:05	86.1	86.1	86.2	43	61.0	1	5	292	0.00	29.896 
17:10	86.3	86.3	85.6	39	58.4	1	3	158	0.00	29.896 
17:15	86.5	86.5	86.3	41	60.0	0	5	0	0.00	29.889 
17:20	86.1	86.1	85.4	39	58.2	0	1	90	0.00	29.889 
17:25	85.5	85.5	85.3	42	59.8	0	2	90	0.00	29.889 
17:30	85.5	85.5	85.5	43	60.4	0	3	90	0.00	29.883 
17:35	85.5	85.5	85.1	41	59.1	0	3	292	0.00	29.883 
17:40	84.9	84.9	85.0	44	60.5	0	2	248	0.00	29.883 
17:45	84.9	84.9	84.6	42	59.2	1	4	270	0.00	29.880 
17:50	84.9	84.9	84.6	42	59.2	1	3	112	0.00	29.880 
17:55	84.7	84.7	84.6	43	59.7	0	3	112	0.00	29.880 
18:00	84.5	84.5	84.0	41	58.2	1	4	112	0.00	29.876 
18:05	84.3	84.3	83.9	42	58.7	0	2	270	0.00	29.876 
18:10	84.3	84.3	84.3	44	60.0	1	5	135	0.00	29.876 
18:15	84.1	84.1	84.1	44	59.8	0	2	135	0.00	29.873 
18:20	84.0	84.0	83.8	43	59.1	0	1	135	0.00	29.873 
18:25	84.0	84.0	84.1	45	60.3	0	1	135	0.00	29.873 
18:30	84.0	84.0	83.6	42	58.4	1	7	90	0.00	29.873 
18:35	83.8	83.8	83.9	45	60.2	0	5	112	0.00	29.873 
18:40	83.6	83.6	83.5	44	59.3	1	5	135	0.00	29.873 
18:45	83.4	83.4	83.3	44	59.2	1	4	135	0.00	29.874 
18:50	83.2	83.2	83.3	45	59.6	1	5	112	0.00	29.874 
18:55	83.0	83.0	82.8	43	58.2	1	4	112	0.00	29.874 
19:00	83.0	83.0	82.9	44	58.8	0	3	112	0.00	29.876 
19:05	82.8	82.8	82.7	44	58.6	1	4	112	0.00	29.876 
19:10	82.8	82.8	83.0	46	59.9	0	3	112	0.00	29.876 
19:15	82.6	82.6	82.7	45	59.1	0	2	112	0.00	29.879 
19:20	82.6	82.6	82.5	44	58.4	0	3	135	0.00	29.879 
19:25	82.4	82.4	82.6	46	59.5	0	4	135	0.00	29.879 
19:30	82.4	82.4	82.7	47	60.1	0	3	135	0.00	29.886 
19:35	82.2	82.2	82.4	46	59.3	0	2	135	0.00	29.886 
19:40	82.0	82.0	82.2	46	59.1	0	1	135	0.00	29.886 
19:45	82.0	82.0	82.5	48	60.3	0	3	135	0.00	29.890 
19:50	82.0	82.0	82.6	49	60.9	0	1	135	0.00	29.890 
19:55	82.0	82.0	82.6	49	60.9	0	1	135	0.00	29.890 
20:00	81.8	81.8	82.3	48	60.2	1	6	112	0.00	29.890 
20:05	81.8	81.8	82.6	50	61.3	0	2	112	0.00	29.890 
20:10	81.6	81.6	82.3	50	61.1	0	3	112	0.00	29.890 
20:15	81.2	81.2	81.9	50	60.8	0	3	112	0.00	29.894 
20:20	80.9	80.9	81.9	52	61.6	0	2	112	0.00	29.894 
20:25	80.5	80.5	81.6	53	61.8	0	2	112	0.00	29.894 
20:30	80.1	80.1	81.2	53	61.4	0	0	---	0.00	29.897 
20:35	79.8	79.8	81.0	54	61.7	0	0	---	0.00	29.897 
20:40	79.4	79.4	80.6	54	61.3	0	0	---	0.00	29.897 
20:45	79.0	79.0	80.3	55	61.4	0	0	---	0.00	29.899 
20:50	78.6	78.6	80.0	56	61.6	0	1	112	0.00	29.899 
20:55	78.3	78.3	79.8	56	61.3	0	0	---	0.00	29.899 
21:00	77.9	77.9	79.5	57	61.4	0	0	---	0.00	29.907 
21:05	77.7	77.7	79.3	58	61.7	0	0	---	0.00	29.907 
21:10	77.4	77.4	79.1	58	61.4	0	0	---	0.00	29.907 
21:15	77.0	77.0	78.8	59	61.6	0	0	---	0.00	29.903 
21:20	76.8	76.8	78.6	59	61.4	0	0	---	0.00	29.903 
21:25	76.5	76.5	78.4	60	61.6	0	0	---	0.00	29.903 
21:30	76.1	76.1	78.1	61	61.7	0	0	---	0.00	29.901 
21:35	76.0	76.0	78.0	62	62.0	0	0	---	0.00	29.901 
21:40	75.6	75.6	77.6	63	62.1	0	0	---	0.00	29.901 
21:45	75.3	75.3	77.4	63	61.8	0	0	---	0.00	29.903 
21:50	74.9	74.9	74.9	64	61.9	0	0	---	0.00	29.903 
21:55	74.7	74.7	74.7	64	61.7	0	0	---	0.00	29.903 
22:00	74.4	74.4	74.4	65	61.8	0	0	---	0.00	29.913 
22:05	74.2	74.2	74.2	66	62.1	0	0	---	0.00	29.913 
22:10	74.0	74.0	74.0	66	61.9	0	0	---	0.00	29.913 
22:15	73.9	73.9	73.9	66	61.8	0	0	---	0.00	29.913 
22:20	73.7	73.7	73.7	67	62.0	0	0	---	0.00	29.913 
22:25	73.5	73.5	73.5	67	61.9	0	0	---	0.00	29.913 
22:30	73.3	73.3	73.3	68	62.1	0	0	---	0.00	29.915 
22:35	73.2	73.2	73.2	69	62.4	0	0	---	0.00	29.915 
22:40	73.0	73.0	73.0	69	62.2	0	0	---	0.00	29.915 
22:45	72.8	72.8	72.8	69	62.0	0	0	---	0.00	29.917 
22:50	72.8	72.8	72.8	70	62.4	0	0	---	0.00	29.917 
22:55	72.7	72.7	72.7	70	62.3	0	0	---	0.00	29.917 
23:00	72.5	72.5	72.5	70	62.1	0	0	---	0.00	29.918 
23:05	72.5	72.5	72.5	70	62.1	0	0	---	0.00	29.918 
23:10	72.5	72.5	72.5	71	62.5	0	2	112	0.00	29.918 
23:15	72.7	72.7	72.7	71	62.7	1	3	112	0.00	29.917 
23:20	73.2	73.2	73.2	69	62.4	1	4	90	0.00	29.917 
23:25	73.5	73.5	73.5	69	62.7	0	0	---	0.00	29.917 
23:30	73.7	73.7	73.7	69	62.9	0	1	90	0.00	29.919 
23:35	73.5	73.5	73.5	70	63.1	0	0	---	0.00	29.919 
23:40	73.5	73.5	73.5	70	63.1	0	0	---	0.00	29.919 
23:45	73.5	73.5	73.5	70	63.1	0	1	90	0.00	29.922 
23:50	73.7	73.7	73.7	70	63.3	0	2	90	0.00	29.922 
23:55	73.7	73.7	73.7	69	62.9	1	4	90	0.00	29.922 

CoCoRaHS
IN-AL-39
A2 Web Hosting
Creative Commons License
GoDaddy
search engine by freefind advanced

loaded 2018-11-15 15:36:14 • last modified 2010-11-18 10:43:29
Privacy PolicyDisclaimer
• wx.awcolley.com is powered by PmWiki v.2002016 •
• all content (unless otherwise noted) © 2018 A W Colley